Costa Magica — IBQQ — position and weather

sailwx.info

Track history (hours):
 
Tides and Currents Weather Stations Pressure Air Temp Water Temp Dewpoint Dewpoint Depression Visibility Wind Speed Wind Dir Waves Ship Positions

Costa Magica

Last reported at 2018-Jun-25 00:31 UTC. Time now 2018-Jun-25 00:39 UTC.
Position N 59°24' E 021°59'.

Type: Ship. MMSI: 247113300.

Date/timePositionNaut miles runAvg speedWind from/ knotsBaromVisibWave heightAir tempDewpointWater temp
2018-Jun-25 00:31N 59°24' E 021°59'1120.7
2018-Jun-25 00:00N 59°25' E 021°38'1020.3
2018-Jun-24 23:30N 59°25' E 021°18'1220.4
2018-Jun-24 22:56N 59°25' E 020°55'920.3
2018-Jun-24 22:30N 59°25' E 020°38'1020.2
2018-Jun-24 22:00N 59°26' E 020°19'918.6
2018-Jun-24 21:30N 59°32' E 020°05'1020.7
2018-Jun-24 21:00N 59°40' E 019°52'1219.2
2018-Jun-24 20:24N 59°47' E 019°34'615.6
2018-Jun-24 20:00N 59°46' E 019°21'816.0
2018-Jun-24 19:30N 59°43' E 019°06'714.4
2018-Jun-24 19:00N 59°39' E 018°55'611.1
2018-Jun-24 18:30N 59°36' E 018°46'611.0
2018-Jun-24 18:00N 59°33' E 018°36'5 9.9
2018-Jun-24 17:30N 59°30' E 018°28'510.5
2018-Jun-24 17:00N 59°26' E 018°23'4 8.9
2018-Jun-24 16:30N 59°21' E 018°26'5 9.8
2018-Jun-24 16:00N 59°22' E 018°16'4 8.5
2018-Jun-24 15:30N 59°21' E 018°08'0 0.9
2018-Jun-24 14:58N 59°21' E 018°07'0 0.0
2018-Jun-24 14:28N 59°21' E 018°07'0 0.0
2018-Jun-24 13:58N 59°21' E 018°07'0 0.0
2018-Jun-24 13:28N 59°21' E 018°07'0 0.0
2018-Jun-24 12:58N 59°21' E 018°07'0 0.0
2018-Jun-24 12:28N 59°21' E 018°07'0 0.0
2018-Jun-24 11:58N 59°21' E 018°07'0 0.0
2018-Jun-24 11:28N 59°21' E 018°07'0 0.0
2018-Jun-24 10:58N 59°21' E 018°07'0 0.0
2018-Jun-24 10:28N 59°21' E 018°07'0 0.0
2018-Jun-24 09:58N 59°21' E 018°07'0 0.0
2018-Jun-24 09:28N 59°21' E 018°07'0 0.0
2018-Jun-24 08:58N 59°21' E 018°07'0 0.0
2018-Jun-24 08:28N 59°21' E 018°07'0 0.0
2018-Jun-24 07:58N 59°21' E 018°07'0 0.0
2018-Jun-24 07:28N 59°21' E 018°07'0 0.0
2018-Jun-24 06:58N 59°21' E 018°07'0 0.0
2018-Jun-24 06:28N 59°21' E 018°07'0 0.0
2018-Jun-24 05:58N 59°21' E 018°07'0 0.0
2018-Jun-24 05:28N 59°21' E 018°07'0 0.0
2018-Jun-24 04:58N 59°21' E 018°07'0 0.0
2018-Jun-24 04:28N 59°21' E 018°07'0 0.0
2018-Jun-24 03:58N 59°21' E 018°07'0 0.0
2018-Jun-24 03:28N 59°21' E 018°07'0 0.0
2018-Jun-24 02:58N 59°21' E 018°07'0 0.0
2018-Jun-24 02:28N 59°21' E 018°07'0 0.0
2018-Jun-24 01:58N 59°21' E 018°07'0 0.0
2018-Jun-24 01:28N 59°21' E 018°07'0 0.0
2018-Jun-24 00:58N 59°21' E 018°07'0 0.0
2018-Jun-24 00:28N 59°21' E 018°07'0 0.0
2018-Jun-23 23:58N 59°21' E 018°07'0 0.0
2018-Jun-23 23:28N 59°21' E 018°07'0 0.0
2018-Jun-23 22:58N 59°21' E 018°07'0 0.0
2018-Jun-23 22:28N 59°21' E 018°07'0 0.0
2018-Jun-23 21:58N 59°21' E 018°07'0 0.0
2018-Jun-23 21:28N 59°21' E 018°07'0 0.0
2018-Jun-23 20:58N 59°21' E 018°07'0 0.0
2018-Jun-23 20:28N 59°21' E 018°07'0 0.0
2018-Jun-23 19:58N 59°21' E 018°07'0 0.0
2018-Jun-23 19:28N 59°21' E 018°07'0 0.0
2018-Jun-23 18:58N 59°21' E 018°07'0 0.0
2018-Jun-23 18:28N 59°21' E 018°07'0 0.0
2018-Jun-23 17:58N 59°21' E 018°07'0 0.0
2018-Jun-23 17:25N 59°21' E 018°07'0 0.0
2018-Jun-23 16:58N 59°21' E 018°07'0 0.0
2018-Jun-23 16:28N 59°21' E 018°07'0 0.0
2018-Jun-23 15:58N 59°21' E 018°07'0 0.0
2018-Jun-23 15:28N 59°21' E 018°07'0 0.0
2018-Jun-23 14:58N 59°21' E 018°07'0 0.0
2018-Jun-23 14:28N 59°21' E 018°07'0 0.0
2018-Jun-23 13:58N 59°21' E 018°07'0 0.0
2018-Jun-23 13:28N 59°21' E 018°07'0 0.0
2018-Jun-23 12:58N 59°21' E 018°07'0 0.0
2018-Jun-23 12:28N 59°21' E 018°07'0 0.0
2018-Jun-23 11:58N 59°21' E 018°07'0 0.0
2018-Jun-23 11:28N 59°21' E 018°07'0 0.0
2018-Jun-23 10:58N 59°21' E 018°07'0 0.0
2018-Jun-23 10:28N 59°21' E 018°07'0 0.0
2018-Jun-23 09:58N 59°21' E 018°07'0 0.0
2018-Jun-23 09:28N 59°21' E 018°07'0 0.0
2018-Jun-23 08:58N 59°21' E 018°07'0 0.0
2018-Jun-23 08:28N 59°21' E 018°07'0 0.0
2018-Jun-23 07:58N 59°21' E 018°07'0 0.0
2018-Jun-23 07:28N 59°21' E 018°07'0 0.0
2018-Jun-23 06:58N 59°21' E 018°07'0 0.0
2018-Jun-23 06:28N 59°21' E 018°07'0 0.0
2018-Jun-23 05:58N 59°21' E 018°07'0 0.0
2018-Jun-23 05:28N 59°21' E 018°07'0 0.0
2018-Jun-23 04:58N 59°21' E 018°07'0 0.0
2018-Jun-23 04:28N 59°21' E 018°07'0 0.0
2018-Jun-23 03:58N 59°21' E 018°07'0 0.0
2018-Jun-23 03:28N 59°21' E 018°07'0 0.0
2018-Jun-23 02:58N 59°21' E 018°07'0 0.0
2018-Jun-23 02:28N 59°21' E 018°07'0 0.0
2018-Jun-23 01:58N 59°21' E 018°07'0 0.0
2018-Jun-23 01:28N 59°21' E 018°07'0 0.0
2018-Jun-23 00:58N 59°21' E 018°07'0 0.0
2018-Jun-23 00:28N 59°21' E 018°07'0 0.0
2018-Jun-22 23:58N 59°21' E 018°07'0 0.0
2018-Jun-22 23:28N 59°21' E 018°07'0 0.0
2018-Jun-22 22:58N 59°21' E 018°07'0 0.0
2018-Jun-22 22:28N 59°21' E 018°07'0 0.0
2018-Jun-22 21:58N 59°21' E 018°07'0 0.0
2018-Jun-22 21:28N 59°21' E 018°07'0 0.0
2018-Jun-22 20:58N 59°21' E 018°07'0 0.0
2018-Jun-22 20:28N 59°21' E 018°07'0 0.0
2018-Jun-22 19:58N 59°21' E 018°07'0 0.0
2018-Jun-22 19:28N 59°21' E 018°07'0 0.0
2018-Jun-22 18:58N 59°21' E 018°07'0 0.0
2018-Jun-22 18:28N 59°21' E 018°07'0 0.0
2018-Jun-22 17:58N 59°21' E 018°07'0 0.0
2018-Jun-22 17:28N 59°21' E 018°07'0 0.0
2018-Jun-22 16:58N 59°21' E 018°07'0 0.0
2018-Jun-22 16:28N 59°21' E 018°07'0 0.0
2018-Jun-22 15:58N 59°21' E 018°07'0 0.0
2018-Jun-22 15:28N 59°21' E 018°07'0 0.0
2018-Jun-22 14:58N 59°21' E 018°07'0 0.0
2018-Jun-22 14:28N 59°21' E 018°07'0 0.0
2018-Jun-22 13:58N 59°21' E 018°07'0 0.0
2018-Jun-22 13:28N 59°21' E 018°07'0 0.0
2018-Jun-22 12:58N 59°21' E 018°07'0 0.0
2018-Jun-22 12:28N 59°21' E 018°07'0 0.0
2018-Jun-22 11:58N 59°21' E 018°07'0 0.0
2018-Jun-22 11:28N 59°21' E 018°07'0 0.0
2018-Jun-22 10:58N 59°21' E 018°07'0 0.0
2018-Jun-22 10:28N 59°21' E 018°07'0 0.0
2018-Jun-22 09:58N 59°21' E 018°07'0 0.0
2018-Jun-22 09:28N 59°21' E 018°07'0 0.0
2018-Jun-22 08:58N 59°21' E 018°07'0 0.0
2018-Jun-22 08:28N 59°21' E 018°07'0 0.0
2018-Jun-22 07:58N 59°21' E 018°07'0 0.0
2018-Jun-22 07:28N 59°21' E 018°07'0 0.0
2018-Jun-22 06:58N 59°21' E 018°07'0 0.0
2018-Jun-22 06:28N 59°21' E 018°07'1 1.7
2018-Jun-22 06:00N 59°21' E 018°09'4 7.1
2018-Jun-22 05:30N 59°22' E 018°15'4 7.1
2018-Jun-22 05:00N 59°22' E 018°22'2 4.7
2018-Jun-22 04:30N 59°23' E 018°27'4 7.7
2018-Jun-22 04:00N 59°27' E 018°25'510.7
2018-Jun-22 03:30N 59°31' E 018°31'510.0
2018-Jun-22 03:00N 59°34' E 018°39'612.0
2018-Jun-22 02:30N 59°37' E 018°50'510.3
2018-Jun-22 02:00N 59°40' E 018°57'714.5
2018-Jun-22 01:30N 59°44' E 019°10'815.0
2018-Jun-22 01:00N 59°47' E 019°24'713.7
2018-Jun-22 00:31N 59°48' E 019°37'714.1
2018-Jun-22 00:00N 59°45' E 019°50'815.2
2018-Jun-21 23:30N 59°39' E 020°00'2415.6
2018-Jun-21 21:57N 59°34' E 020°47'818.1
2018-Jun-21 21:31N 59°32' E 021°02'918.1
2018-Jun-21 21:01N 59°29' E 021°19'917.9
2018-Jun-21 20:30N 59°27' E 021°36'918.1
2018-Jun-21 20:00N 59°28' E 021°54'918.2
2018-Jun-21 19:30N 59°28' E 022°12'918.2
2018-Jun-21 19:00N 59°30' E 022°30'918.0
2018-Jun-21 18:31N 59°31' E 022°47'918.2
2018-Jun-21 18:01N 59°32' E 023°05'918.3
2018-Jun-21 17:31N 59°31' E 023°23'917.9
2018-Jun-21 17:00N 59°31' E 023°40'917.9
2018-Jun-21 16:31N 59°31' E 023°58'916.9
2018-Jun-21 16:00N 59°30' E 024°15'714.4
2018-Jun-21 15:31N 59°30' E 024°29'612.1
2018-Jun-21 15:00N 59°32' E 024°40'5 9.4
2018-Jun-21 14:30N 59°28' E 024°46'1 2.0
2018-Jun-21 13:59N 59°27' E 024°46'0 0.0
2018-Jun-21 13:30N 59°27' E 024°46'0 0.0
2018-Jun-21 12:58N 59°27' E 024°46'0 0.0
2018-Jun-21 12:28N 59°27' E 024°46'0 0.0
2018-Jun-21 11:58N 59°27' E 024°46'0 0.0
2018-Jun-21 11:28N 59°27' E 024°46'0 0.0
2018-Jun-21 11:00N 59°27' E 024°46'0 0.0
2018-Jun-21 10:29N 59°27' E 024°46'0 0.0
2018-Jun-21 09:58N 59°27' E 024°46'0 0.0
2018-Jun-21 09:28N 59°27' E 024°46'0 0.0
2018-Jun-21 09:01N 59°27' E 024°46'0 0.0
2018-Jun-21 08:28N 59°27' E 024°46'0 0.0
2018-Jun-21 07:58N 59°27' E 024°46'0 0.0
2018-Jun-21 07:30N 59°27' E 024°46'0 0.0
2018-Jun-21 06:58N 59°27' E 024°46'0 0.0
2018-Jun-21 06:28N 59°27' E 024°46'0 0.0
2018-Jun-21 05:59N 59°27' E 024°46'0 0.0
2018-Jun-21 05:30N 59°27' E 024°46'3 5.5
2018-Jun-21 05:01N 59°30' E 024°45'714.7
2018-Jun-21 04:30N 59°37' E 024°40'510.3
2018-Jun-21 04:00N 59°41' E 024°46'714.1
2018-Jun-21 03:30N 59°45' E 024°56'713.8
2018-Jun-21 03:00N 59°51' E 025°04'714.9
2018-Jun-21 02:30N 59°52' E 025°18'714.9
2018-Jun-21 02:00N 59°54' E 025°33'815.0
2018-Jun-21 01:30N 59°55' E 025°48'914.9
2018-Jun-21 00:55N 59°58' E 026°04'614.9
2018-Jun-21 00:30N 59°59' E 026°16'815.4
2018-Jun-21 00:00N 60°01' E 026°31'815.1
2018-Jun-20 23:30N 60°01' E 026°46'816.5
2018-Jun-20 23:00N 59°59' E 027°03'816.3
2018-Jun-20 22:30N 60°04' E 027°17'817.2
2018-Jun-20 22:00N 60°08' E 027°31'816.8
2018-Jun-20 21:30N 60°12' E 027°46'816.6
2018-Jun-20 21:00N 60°10' E 028°02'816.6
2018-Jun-20 20:30N 60°07' E 028°18'816.7
2018-Jun-20 20:00N 60°03' E 028°33'816.7
2018-Jun-20 19:30N 60°03' E 028°50'916.3
2018-Jun-20 18:58N 60°02' E 029°07'714.3
2018-Jun-20 18:28N 60°02' E 029°21'5 8.9
2018-Jun-20 17:55N 60°01' E 029°31'511.9
2018-Jun-20 17:29N 59°60' E 029°41'4 8.2
2018-Jun-20 17:00N 59°58' E 029°48'611.6
2018-Jun-20 16:30N 59°56' E 029°59'510.2
2018-Jun-20 16:00N 59°57' E 030°09'1 2.5
2018-Jun-20 15:29N 59°57' E 030°11'0 0.0
2018-Jun-20 14:59N 59°57' E 030°11'0 0.0
2018-Jun-20 14:29N 59°57' E 030°11'0 0.0
2018-Jun-20 13:59N 59°57' E 030°11'0 0.0
2018-Jun-20 13:29N 59°57' E 030°11'0 0.0
2018-Jun-20 12:59N 59°57' E 030°11'0 0.0
2018-Jun-20 12:29N 59°57' E 030°11'0 0.0
2018-Jun-20 11:59N 59°57' E 030°11'0 0.0
2018-Jun-20 11:29N 59°57' E 030°11'0 0.0
2018-Jun-20 10:59N 59°57' E 030°11'0 0.0
2018-Jun-20 10:26N 59°57' E 030°11'0 0.0
2018-Jun-20 09:59N 59°57' E 030°11'0 0.0
2018-Jun-20 09:29N 59°57' E 030°11'0 0.0
2018-Jun-20 08:59N 59°57' E 030°11'0 0.0
2018-Jun-20 08:29N 59°57' E 030°11'0 0.0
2018-Jun-20 07:59N 59°57' E 030°11'0 0.0
2018-Jun-20 07:29N 59°57' E 030°11'0 0.0
2018-Jun-20 06:59N 59°57' E 030°11'0 0.0
2018-Jun-20 06:26N 59°57' E 030°11'0 0.0
2018-Jun-20 05:59N 59°57' E 030°11'0 0.0
2018-Jun-20 05:29N 59°57' E 030°11'0 0.0
2018-Jun-20 04:59N 59°57' E 030°11'0 0.0
2018-Jun-20 04:29N 59°57' E 030°11'0 0.0
2018-Jun-20 03:59N 59°57' E 030°11'0 0.0
2018-Jun-20 03:29N 59°57' E 030°11'0 0.0
2018-Jun-20 02:59N 59°57' E 030°11'0 0.0
2018-Jun-20 02:29N 59°57' E 030°11'0 0.0
2018-Jun-20 01:59N 59°57' E 030°11'0 0.0
2018-Jun-20 01:29N 59°57' E 030°11'0 0.0
2018-Jun-20 00:59N 59°57' E 030°11'0 0.0
2018-Jun-20 00:29N 59°57' E 030°11'0 0.0
2018-Jun-19 23:59N 59°57' E 030°11'0 0.0
2018-Jun-19 23:29N 59°57' E 030°11'0 0.0
2018-Jun-19 22:59N 59°57' E 030°11'0 0.0
2018-Jun-19 22:29N 59°57' E 030°11'0 0.0
2018-Jun-19 21:59N 59°57' E 030°11'0 0.0
2018-Jun-19 21:29N 59°57' E 030°11'0 0.0
2018-Jun-19 20:59N 59°57' E 030°11'0 0.0
2018-Jun-19 20:29N 59°57' E 030°11'0 0.0
2018-Jun-19 19:59N 59°57' E 030°11'0 0.0
2018-Jun-19 19:29N 59°57' E 030°11'0 0.0
2018-Jun-19 18:59N 59°57' E 030°11'0 0.0
2018-Jun-19 18:29N 59°57' E 030°11'0 0.0
2018-Jun-19 17:59N 59°57' E 030°11'0 0.0
2018-Jun-19 17:29N 59°57' E 030°11'0 0.0
2018-Jun-19 16:59N 59°57' E 030°11'0 0.0
2018-Jun-19 16:29N 59°57' E 030°11'0 0.0
2018-Jun-19 15:59N 59°57' E 030°11'0 0.0
2018-Jun-19 15:29N 59°57' E 030°11'0 0.0
2018-Jun-19 14:59N 59°57' E 030°11'0 0.0
2018-Jun-19 14:29N 59°57' E 030°11'0 0.0
2018-Jun-19 13:59N 59°57' E 030°11'0 0.0
2018-Jun-19 13:29N 59°57' E 030°11'0 0.0
2018-Jun-19 12:59N 59°57' E 030°11'0 0.0
2018-Jun-19 12:26N 59°57' E 030°11'0 0.0
2018-Jun-19 11:59N 59°57' E 030°11'0 0.0
2018-Jun-19 11:29N 59°57' E 030°11'0 0.0
2018-Jun-19 10:59N 59°57' E 030°11'0 0.0
2018-Jun-19 10:29N 59°57' E 030°11'0 0.0
2018-Jun-19 09:59N 59°57' E 030°11'0 0.0
2018-Jun-19 09:29N 59°57' E 030°11'0 0.0
2018-Jun-19 08:59N 59°57' E 030°11'0 0.0
2018-Jun-19 08:29N 59°57' E 030°11'0 0.0
2018-Jun-19 07:59N 59°57' E 030°11'0 0.0
2018-Jun-19 07:29N 59°57' E 030°11'0 0.0
2018-Jun-19 06:59N 59°57' E 030°11'0 0.0
2018-Jun-19 06:29N 59°57' E 030°11'0 0.0
2018-Jun-19 05:59N 59°57' E 030°11'0 0.0
2018-Jun-19 05:26N 59°57' E 030°11'0 0.0
2018-Jun-19 04:59N 59°57' E 030°11'0 0.0
2018-Jun-19 04:29N 59°57' E 030°11'0 0.0
2018-Jun-19 03:56N 59°57' E 030°11'0 0.0
2018-Jun-19 03:30N 59°57' E 030°11'2 3.1
2018-Jun-19 03:01N 59°57' E 030°08'5 9.6
2018-Jun-19 02:30N 59°56' E 029°59'510.6
2018-Jun-19 02:00N 59°58' E 029°49'4 8.2
2018-Jun-19 01:28N 59°60' E 029°41'911.1
2018-Jun-19 00:39N 60°02' E 029°23'214.4
2018-Jun-19 00:31N 60°02' E 029°19'816.1
2018-Jun-19 00:00N 60°02' E 029°03'816.2
2018-Jun-18 23:31N 60°02' E 028°47'816.4
2018-Jun-18 23:01N 60°03' E 028°31'816.2
2018-Jun-18 22:31N 60°07' E 028°17'816.5
2018-Jun-18 22:01N 60°09' E 028°01'816.2
2018-Jun-18 21:30N 60°11' E 027°45'816.3
2018-Jun-18 21:01N 60°06' E 027°31'816.4
2018-Jun-18 20:31N 60°02' E 027°17'816.3
2018-Jun-18 20:00N 59°58' E 027°03'816.6
2018-Jun-18 19:31N 59°59' E 026°47'816.4
2018-Jun-18 19:00N 59°58' E 026°30'1016.4
2018-Jun-18 18:26N 59°56' E 026°12'716.4
2018-Jun-18 17:59N 59°54' E 025°58'816.6
2018-Jun-18 17:31N 59°52' E 025°42'816.8
2018-Jun-18 17:01N 59°53' E 025°26'816.9
2018-Jun-18 16:31N 59°54' E 025°09'714.6
2018-Jun-18 16:00N 59°57' E 024°56'611.8
2018-Jun-18 15:31N 60°03' E 024°54'611.6
2018-Jun-18 14:59N 60°09' E 024°55'0 0.0
2018-Jun-18 14:29N 60°09' E 024°55'0 0.0
2018-Jun-18 13:59N 60°09' E 024°55'0 0.0
2018-Jun-18 13:29N 60°09' E 024°55'0 0.0
2018-Jun-18 12:59N 60°09' E 024°55'0 0.0
2018-Jun-18 12:26N 60°09' E 024°55'0 0.0
2018-Jun-18 11:59N 60°09' E 024°55'0 0.0
2018-Jun-18 11:23N 60°09' E 024°55'0 0.0
2018-Jun-18 10:59N 60°09' E 024°55'0 0.0
2018-Jun-18 10:29N 60°09' E 024°55'0 0.0
2018-Jun-18 09:59N 60°09' E 024°55'0 0.0
2018-Jun-18 09:29N 60°09' E 024°55'0 0.0
2018-Jun-18 08:59N 60°09' E 024°55'0 0.0
2018-Jun-18 08:29N 60°09' E 024°55'0 0.0
2018-Jun-18 07:59N 60°09' E 024°55'0 0.0
2018-Jun-18 07:29N 60°09' E 024°55'0 0.0
2018-Jun-18 06:59N 60°09' E 024°55'0 0.0
2018-Jun-18 06:20N 60°09' E 024°55'0 0.0
2018-Jun-18 05:59N 60°09' E 024°55'0 0.0
2018-Jun-18 05:29N 60°09' E 024°55'0 0.0
2018-Jun-18 04:59N 60°09' E 024°55'0 0.0
2018-Jun-18 04:29N 60°09' E 024°55'1 1.9
2018-Jun-18 04:01N 60°08' E 024°54'612.6
2018-Jun-18 03:30N 60°02' E 024°55'611.1
2018-Jun-18 03:00N 59°56' E 024°56'3 6.7
2018-Jun-18 02:30N 59°53' E 024°56'510.5
2018-Jun-18 02:00N 59°48' E 024°57'611.8
2018-Jun-18 01:30N 59°46' E 024°46'612.6
2018-Jun-18 01:00N 59°45' E 024°34'612.7
2018-Jun-18 00:30N 59°43' E 024°22'612.7
2018-Jun-18 00:00N 59°41' E 024°10'612.7
2018-Jun-17 23:30N 59°39' E 023°58'612.5
2018-Jun-17 23:00N 59°37' E 023°46'612.5
2018-Jun-17 22:30N 59°35' E 023°34'612.6
2018-Jun-17 22:00N 59°33' E 023°23'612.1
2018-Jun-17 21:30N 59°31' E 023°11'612.3
2018-Jun-17 21:00N 59°29' E 022°60'612.3
2018-Jun-17 20:30N 59°28' E 022°48'612.1
2018-Jun-17 20:00N 59°26' E 022°37'612.3
2018-Jun-17 19:30N 59°22' E 022°27'612.1
2018-Jun-17 19:00N 59°22' E 022°15'612.0
2018-Jun-17 18:30N 59°23' E 022°03'612.0
2018-Jun-17 18:00N 59°23' E 021°52'612.2
2018-Jun-17 17:30N 59°24' E 021°39'612.3
2018-Jun-17 17:00N 59°24' E 021°28'612.3
2018-Jun-17 16:30N 59°25' E 021°15'612.1
2018-Jun-17 16:00N 59°25' E 021°04'612.0
2018-Jun-17 15:30N 59°25' E 020°52'612.2
2018-Jun-17 15:00N 59°22' E 020°42'612.3
2018-Jun-17 14:30N 59°19' E 020°32'612.4
2018-Jun-17 14:00N 59°16' E 020°20'612.3
2018-Jun-17 13:30N 59°16' E 020°08'610.5
2018-Jun-17 12:59N 59°21' E 020°03'612.5
2018-Jun-17 12:30N 59°27' E 020°03'612.5
2018-Jun-17 12:00N 59°33' E 020°03'612.1
2018-Jun-17 11:29N 59°38' E 019°55'612.1
2018-Jun-17 11:00N 59°43' E 019°48'612.1
2018-Jun-17 10:30N 59°47' E 019°39'612.5
2018-Jun-17 10:00N 59°47' E 019°26'612.7
2018-Jun-17 09:31N 59°44' E 019°15'814.7
2018-Jun-17 09:00N 59°41' E 019°01'510.7
2018-Jun-17 08:30N 59°38' E 018°52'611.7
2018-Jun-17 08:00N 59°35' E 018°43'510.4
2018-Jun-17 07:30N 59°32' E 018°34'5 9.8
2018-Jun-17 07:00N 59°29' E 018°27'5 9.2
2018-Jun-17 06:30N 59°25' E 018°25'3 5.4
2018-Jun-17 06:00N 59°22' E 018°24'5 9.5
2018-Jun-17 05:30N 59°21' E 018°15'3 6.9
2018-Jun-17 05:00N 59°21' E 018°08'0 0.3
2018-Jun-17 04:30N 59°21' E 018°08'0 0.0
2018-Jun-17 04:00N 59°21' E 018°08'0 0.0
2018-Jun-17 03:30N 59°21' E 018°08'0 0.0
2018-Jun-17 03:00N 59°21' E 018°08'0 0.0
2018-Jun-17 02:30N 59°21' E 018°08'0 0.0
2018-Jun-17 02:00N 59°21' E 018°08'0 0.0
2018-Jun-17 01:30N 59°21' E 018°08'0 0.0
2018-Jun-17 01:00N 59°21' E 018°08'0 0.0
2018-Jun-17 00:30N 59°21' E 018°08'0 0.0
2018-Jun-17 00:00N 59°21' E 018°08'0 0.0
2018-Jun-16 23:30N 59°21' E 018°08'0 0.0
2018-Jun-16 23:00N 59°21' E 018°08'0 0.0
2018-Jun-16 22:30N 59°21' E 018°08'0 0.0
2018-Jun-16 22:00N 59°21' E 018°08'0 0.0
2018-Jun-16 21:30N 59°21' E 018°08'0 0.0
2018-Jun-16 21:00N 59°21' E 018°08'0 0.0
2018-Jun-16 20:30N 59°21' E 018°08'0 0.0
2018-Jun-16 20:00N 59°21' E 018°08'0 0.0
2018-Jun-16 19:30N 59°21' E 018°08'0 0.0
2018-Jun-16 19:00N 59°21' E 018°08'0 0.0
2018-Jun-16 18:30N 59°21' E 018°08'0 0.0
2018-Jun-16 18:00N 59°21' E 018°08'0 0.0
2018-Jun-16 17:27N 59°21' E 018°08'0 0.0
2018-Jun-16 17:00N 59°21' E 018°08'0 0.0
2018-Jun-16 16:31N 59°21' E 018°08'0 0.0
2018-Jun-16 16:00N 59°21' E 018°08'0 0.0
2018-Jun-16 15:30N 59°21' E 018°08'0 0.0
2018-Jun-16 15:00N 59°21' E 018°08'0 0.0
2018-Jun-16 14:30N 59°21' E 018°08'0 0.0
2018-Jun-16 14:00N 59°21' E 018°08'0 0.0
2018-Jun-16 13:30N 59°21' E 018°08'0 0.0
2018-Jun-16 13:00N 59°21' E 018°08'0 0.0
2018-Jun-16 12:30N 59°21' E 018°08'0 0.0
2018-Jun-16 12:00N 59°21' E 018°08'0 0.0
2018-Jun-16 11:30N 59°21' E 018°08'0 0.0
2018-Jun-16 11:00N 59°21' E 018°08'0 0.0
2018-Jun-16 10:31N 59°21' E 018°08'0 0.0
2018-Jun-16 10:00N 59°21' E 018°08'0 0.0
2018-Jun-16 09:30N 59°21' E 018°08'0 0.0
2018-Jun-16 09:01N 59°21' E 018°08'0 0.0
2018-Jun-16 08:30N 59°21' E 018°08'0 0.0
2018-Jun-16 08:00N 59°21' E 018°08'0 0.0
2018-Jun-16 07:30N 59°21' E 018°08'0 0.0
2018-Jun-16 07:00N 59°21' E 018°08'0 0.0
2018-Jun-16 06:31N 59°21' E 018°08'0 0.0
2018-Jun-16 06:01N 59°21' E 018°08'0 0.0
2018-Jun-16 05:30N 59°21' E 018°08'0 0.0
2018-Jun-16 05:00N 59°21' E 018°08'0 0.0
2018-Jun-16 04:30N 59°21' E 018°08'0 0.0
2018-Jun-16 04:00N 59°21' E 018°08'0 0.0
2018-Jun-16 03:30N 59°21' E 018°08'0 0.0
2018-Jun-16 03:01N 59°21' E 018°08'0 0.0
2018-Jun-16 02:30N 59°21' E 018°08'0 0.0
2018-Jun-16 02:01N 59°21' E 018°08'0 0.0
2018-Jun-16 01:30N 59°21' E 018°08'0 0.0
2018-Jun-16 01:00N 59°21' E 018°08'0 0.0
2018-Jun-16 00:30N 59°21' E 018°08'0 0.0
2018-Jun-16 00:00N 59°21' E 018°08'0 0.0
2018-Jun-15 23:31N 59°21' E 018°08'0 0.0
2018-Jun-15 23:01N 59°21' E 018°08'0 0.0
2018-Jun-15 22:30N 59°21' E 018°08'0 0.0
2018-Jun-15 22:00N 59°21' E 018°08'0 0.0
2018-Jun-15 21:31N 59°21' E 018°08'0 0.0
2018-Jun-15 21:00N 59°21' E 018°08'0 0.0
2018-Jun-15 20:30N 59°21' E 018°08'0 0.0
2018-Jun-15 20:00N 59°21' E 018°08'0 0.0
2018-Jun-15 19:30N 59°21' E 018°08'0 0.0
2018-Jun-15 19:01N 59°21' E 018°08'0 0.0
2018-Jun-15 18:30N 59°21' E 018°08'0 0.0
2018-Jun-15 18:00N 59°21' E 018°08'0 0.0
2018-Jun-15 17:31N 59°21' E 018°08'0 0.0
2018-Jun-15 17:01N 59°21' E 018°08'0 0.0
2018-Jun-15 16:30N 59°21' E 018°08'0 0.0
2018-Jun-15 16:00N 59°21' E 018°08'0 0.0
2018-Jun-15 15:30N 59°21' E 018°08'0 0.0
2018-Jun-15 15:00N 59°21' E 018°08'0 0.0
2018-Jun-15 14:30N 59°21' E 018°08'0 0.0
2018-Jun-15 14:01N 59°21' E 018°08'0 0.0
2018-Jun-15 13:31N 59°21' E 018°08'0 0.0
2018-Jun-15 13:01N 59°21' E 018°08'0 0.0
2018-Jun-15 12:30N 59°21' E 018°08'0 0.0
2018-Jun-15 12:00N 59°21' E 018°08'0 0.0
2018-Jun-15 11:30N 59°21' E 018°08'0 0.0
2018-Jun-15 11:01N 59°21' E 018°08'0 0.0
2018-Jun-15 10:30N 59°21' E 018°08'0 0.0
2018-Jun-15 10:00N 59°21' E 018°08'0 0.0
2018-Jun-15 09:30N 59°21' E 018°08'0 0.0
2018-Jun-15 09:00N 59°21' E 018°08'0 0.0
2018-Jun-15 08:30N 59°21' E 018°08'0 0.0
2018-Jun-15 08:00N 59°21' E 018°08'0 0.0
2018-Jun-15 07:30N 59°21' E 018°08'0 0.0
2018-Jun-15 07:01N 59°21' E 018°08'2 3.5
2018-Jun-15 06:30N 59°20' E 018°11'510.5
2018-Jun-15 06:00N 59°23' E 018°20'3 7.0
2018-Jun-15 05:31N 59°23' E 018°27'4 8.2
2018-Jun-15 05:00N 59°27' E 018°26'510.8
2018-Jun-15 04:31N 59°31' E 018°32'5 9.7
2018-Jun-15 04:00N 59°34' E 018°39'611.9
2018-Jun-15 03:30N 59°37' E 018°50'510.0
2018-Jun-15 03:00N 59°40' E 018°57'715.0
2018-Jun-15 02:30N 59°44' E 019°10'815.7
2018-Jun-15 02:00N 59°47' E 019°25'612.2
2018-Jun-15 01:30N 59°49' E 019°36'816.9
2018-Jun-15 01:00N 59°44' E 019°51'  
Track history (hours):
 
Tides and Currents Weather Stations Pressure Air Temp Water Temp Dewpoint Dewpoint Depression Visibility Wind Speed Wind Dir Waves Ship Positions

Costa Magica

Last reported at 2018-Jun-25 00:31 UTC. Time now 2018-Jun-25 00:39 UTC.
Position N 59°24' E 021°59'.

Type: Ship. MMSI: 247113300.

Date/timePositionNaut miles runAvg speedWind from/ knotsBaromVisibWave heightAir tempDewpointWater temp
2018-Jun-25 00:31N 59°24' E 021°59'1120.7
2018-Jun-25 00:00N 59°25' E 021°38'1020.3
2018-Jun-24 23:30N 59°25' E 021°18'1220.4
2018-Jun-24 22:56N 59°25' E 020°55'920.3
2018-Jun-24 22:30N 59°25' E 020°38'1020.2
2018-Jun-24 22:00N 59°26' E 020°19'918.6
2018-Jun-24 21:30N 59°32' E 020°05'1020.7
2018-Jun-24 21:00N 59°40' E 019°52'1219.2
2018-Jun-24 20:24N 59°47' E 019°34'615.6
2018-Jun-24 20:00N 59°46' E 019°21'816.0
2018-Jun-24 19:30N 59°43' E 019°06'714.4
2018-Jun-24 19:00N 59°39' E 018°55'611.1
2018-Jun-24 18:30N 59°36' E 018°46'611.0
2018-Jun-24 18:00N 59°33' E 018°36'5 9.9
2018-Jun-24 17:30N 59°30' E 018°28'510.5
2018-Jun-24 17:00N 59°26' E 018°23'4 8.9
2018-Jun-24 16:30N 59°21' E 018°26'5 9.8
2018-Jun-24 16:00N 59°22' E 018°16'4 8.5
2018-Jun-24 15:30N 59°21' E 018°08'0 0.9
2018-Jun-24 14:58N 59°21' E 018°07'0 0.0
2018-Jun-24 14:28N 59°21' E 018°07'0 0.0
2018-Jun-24 13:58N 59°21' E 018°07'0 0.0
2018-Jun-24 13:28N 59°21' E 018°07'0 0.0
2018-Jun-24 12:58N 59°21' E 018°07'0 0.0
2018-Jun-24 12:28N 59°21' E 018°07'0 0.0
2018-Jun-24 11:58N 59°21' E 018°07'0 0.0
2018-Jun-24 11:28N 59°21' E 018°07'0 0.0
2018-Jun-24 10:58N 59°21' E 018°07'0 0.0
2018-Jun-24 10:28N 59°21' E 018°07'0 0.0
2018-Jun-24 09:58N 59°21' E 018°07'0 0.0
2018-Jun-24 09:28N 59°21' E 018°07'0 0.0
2018-Jun-24 08:58N 59°21' E 018°07'0 0.0
2018-Jun-24 08:28N 59°21' E 018°07'0 0.0
2018-Jun-24 07:58N 59°21' E 018°07'0 0.0
2018-Jun-24 07:28N 59°21' E 018°07'0 0.0
2018-Jun-24 06:58N 59°21' E 018°07'0 0.0
2018-Jun-24 06:28N 59°21' E 018°07'0 0.0
2018-Jun-24 05:58N 59°21' E 018°07'0 0.0
2018-Jun-24 05:28N 59°21' E 018°07'0 0.0
2018-Jun-24 04:58N 59°21' E 018°07'0 0.0
2018-Jun-24 04:28N 59°21' E 018°07'0 0.0
2018-Jun-24 03:58N 59°21' E 018°07'0 0.0
2018-Jun-24 03:28N 59°21' E 018°07'0 0.0
2018-Jun-24 02:58N 59°21' E 018°07'0 0.0
2018-Jun-24 02:28N 59°21' E 018°07'0 0.0
2018-Jun-24 01:58N 59°21' E 018°07'0 0.0
2018-Jun-24 01:28N 59°21' E 018°07'0 0.0
2018-Jun-24 00:58N 59°21' E 018°07'0 0.0
2018-Jun-24 00:28N 59°21' E 018°07'0 0.0
2018-Jun-23 23:58N 59°21' E 018°07'0 0.0
2018-Jun-23 23:28N 59°21' E 018°07'0 0.0
2018-Jun-23 22:58N 59°21' E 018°07'0 0.0
2018-Jun-23 22:28N 59°21' E 018°07'0 0.0
2018-Jun-23 21:58N 59°21' E 018°07'0 0.0
2018-Jun-23 21:28N 59°21' E 018°07'0 0.0
2018-Jun-23 20:58N 59°21' E 018°07'0 0.0
2018-Jun-23 20:28N 59°21' E 018°07'0 0.0
2018-Jun-23 19:58N 59°21' E 018°07'0 0.0
2018-Jun-23 19:28N 59°21' E 018°07'0 0.0
2018-Jun-23 18:58N 59°21' E 018°07'0 0.0
2018-Jun-23 18:28N 59°21' E 018°07'0 0.0
2018-Jun-23 17:58N 59°21' E 018°07'0 0.0
2018-Jun-23 17:25N 59°21' E 018°07'0 0.0
2018-Jun-23 16:58N 59°21' E 018°07'0 0.0
2018-Jun-23 16:28N 59°21' E 018°07'0 0.0
2018-Jun-23 15:58N 59°21' E 018°07'0 0.0
2018-Jun-23 15:28N 59°21' E 018°07'0 0.0
2018-Jun-23 14:58N 59°21' E 018°07'0 0.0
2018-Jun-23 14:28N 59°21' E 018°07'0 0.0
2018-Jun-23 13:58N 59°21' E 018°07'0 0.0
2018-Jun-23 13:28N 59°21' E 018°07'0 0.0
2018-Jun-23 12:58N 59°21' E 018°07'0 0.0
2018-Jun-23 12:28N 59°21' E 018°07'0 0.0
2018-Jun-23 11:58N 59°21' E 018°07'0 0.0
2018-Jun-23 11:28N 59°21' E 018°07'0 0.0
2018-Jun-23 10:58N 59°21' E 018°07'0 0.0
2018-Jun-23 10:28N 59°21' E 018°07'0 0.0
2018-Jun-23 09:58N 59°21' E 018°07'0 0.0
2018-Jun-23 09:28N 59°21' E 018°07'0 0.0
2018-Jun-23 08:58N 59°21' E 018°07'0 0.0
2018-Jun-23 08:28N 59°21' E 018°07'0 0.0
2018-Jun-23 07:58N 59°21' E 018°07'0 0.0
2018-Jun-23 07:28N 59°21' E 018°07'0 0.0
2018-Jun-23 06:58N 59°21' E 018°07'0 0.0
2018-Jun-23 06:28N 59°21' E 018°07'0 0.0
2018-Jun-23 05:58N 59°21' E 018°07'0 0.0
2018-Jun-23 05:28N 59°21' E 018°07'0 0.0
2018-Jun-23 04:58N 59°21' E 018°07'0 0.0
2018-Jun-23 04:28N 59°21' E 018°07'0 0.0
2018-Jun-23 03:58N 59°21' E 018°07'0 0.0
2018-Jun-23 03:28N 59°21' E 018°07'0 0.0
2018-Jun-23 02:58N 59°21' E 018°07'0 0.0
2018-Jun-23 02:28N 59°21' E 018°07'0 0.0
2018-Jun-23 01:58N 59°21' E 018°07'0 0.0
2018-Jun-23 01:28N 59°21' E 018°07'0 0.0
2018-Jun-23 00:58N 59°21' E 018°07'0 0.0
2018-Jun-23 00:28N 59°21' E 018°07'0 0.0
2018-Jun-22 23:58N 59°21' E 018°07'0 0.0
2018-Jun-22 23:28N 59°21' E 018°07'0 0.0
2018-Jun-22 22:58N 59°21' E 018°07'0 0.0
2018-Jun-22 22:28N 59°21' E 018°07'0 0.0
2018-Jun-22 21:58N 59°21' E 018°07'0 0.0
2018-Jun-22 21:28N 59°21' E 018°07'0 0.0
2018-Jun-22 20:58N 59°21' E 018°07'0 0.0
2018-Jun-22 20:28N 59°21' E 018°07'0 0.0
2018-Jun-22 19:58N 59°21' E 018°07'0 0.0
2018-Jun-22 19:28N 59°21' E 018°07'0 0.0
2018-Jun-22 18:58N 59°21' E 018°07'0 0.0
2018-Jun-22 18:28N 59°21' E 018°07'0 0.0
2018-Jun-22 17:58N 59°21' E 018°07'0 0.0
2018-Jun-22 17:28N 59°21' E 018°07'0 0.0
2018-Jun-22 16:58N 59°21' E 018°07'0 0.0
2018-Jun-22 16:28N 59°21' E 018°07'0 0.0
2018-Jun-22 15:58N 59°21' E 018°07'0 0.0
2018-Jun-22 15:28N 59°21' E 018°07'0 0.0
2018-Jun-22 14:58N 59°21' E 018°07'0 0.0
2018-Jun-22 14:28N 59°21' E 018°07'0 0.0
2018-Jun-22 13:58N 59°21' E 018°07'0 0.0
2018-Jun-22 13:28N 59°21' E 018°07'0 0.0
2018-Jun-22 12:58N 59°21' E 018°07'0 0.0
2018-Jun-22 12:28N 59°21' E 018°07'0 0.0
2018-Jun-22 11:58N 59°21' E 018°07'0 0.0
2018-Jun-22 11:28N 59°21' E 018°07'0 0.0
2018-Jun-22 10:58N 59°21' E 018°07'0 0.0
2018-Jun-22 10:28N 59°21' E 018°07'0 0.0
2018-Jun-22 09:58N 59°21' E 018°07'0 0.0
2018-Jun-22 09:28N 59°21' E 018°07'0 0.0
2018-Jun-22 08:58N 59°21' E 018°07'0 0.0
2018-Jun-22 08:28N 59°21' E 018°07'0 0.0
2018-Jun-22 07:58N 59°21' E 018°07'0 0.0
2018-Jun-22 07:28N 59°21' E 018°07'0 0.0
2018-Jun-22 06:58N 59°21' E 018°07'0 0.0
2018-Jun-22 06:28N 59°21' E 018°07'1 1.7
2018-Jun-22 06:00N 59°21' E 018°09'4 7.1
2018-Jun-22 05:30N 59°22' E 018°15'4 7.1
2018-Jun-22 05:00N 59°22' E 018°22'2 4.7
2018-Jun-22 04:30N 59°23' E 018°27'4 7.7
2018-Jun-22 04:00N 59°27' E 018°25'510.7
2018-Jun-22 03:30N 59°31' E 018°31'510.0
2018-Jun-22 03:00N 59°34' E 018°39'612.0
2018-Jun-22 02:30N 59°37' E 018°50'510.3
2018-Jun-22 02:00N 59°40' E 018°57'714.5
2018-Jun-22 01:30N 59°44' E 019°10'815.0
2018-Jun-22 01:00N 59°47' E 019°24'713.7
2018-Jun-22 00:31N 59°48' E 019°37'714.1
2018-Jun-22 00:00N 59°45' E 019°50'815.2
2018-Jun-21 23:30N 59°39' E 020°00'2415.6
2018-Jun-21 21:57N 59°34' E 020°47'818.1
2018-Jun-21 21:31N 59°32' E 021°02'918.1
2018-Jun-21 21:01N 59°29' E 021°19'917.9
2018-Jun-21 20:30N 59°27' E 021°36'918.1
2018-Jun-21 20:00N 59°28' E 021°54'918.2
2018-Jun-21 19:30N 59°28' E 022°12'918.2
2018-Jun-21 19:00N 59°30' E 022°30'918.0
2018-Jun-21 18:31N 59°31' E 022°47'918.2
2018-Jun-21 18:01N 59°32' E 023°05'918.3
2018-Jun-21 17:31N 59°31' E 023°23'917.9
2018-Jun-21 17:00N 59°31' E 023°40'917.9
2018-Jun-21 16:31N 59°31' E 023°58'916.9
2018-Jun-21 16:00N 59°30' E 024°15'714.4
2018-Jun-21 15:31N 59°30' E 024°29'612.1
2018-Jun-21 15:00N 59°32' E 024°40'5 9.4
2018-Jun-21 14:30N 59°28' E 024°46'1 2.0
2018-Jun-21 13:59N 59°27' E 024°46'0 0.0
2018-Jun-21 13:30N 59°27' E 024°46'0 0.0
2018-Jun-21 12:58N 59°27' E 024°46'0 0.0
2018-Jun-21 12:28N 59°27' E 024°46'0 0.0
2018-Jun-21 11:58N 59°27' E 024°46'0 0.0
2018-Jun-21 11:28N 59°27' E 024°46'0 0.0
2018-Jun-21 11:00N 59°27' E 024°46'0 0.0
2018-Jun-21 10:29N 59°27' E 024°46'0 0.0
2018-Jun-21 09:58N 59°27' E 024°46'0 0.0
2018-Jun-21 09:28N 59°27' E 024°46'0 0.0
2018-Jun-21 09:01N 59°27' E 024°46'0 0.0
2018-Jun-21 08:28N 59°27' E 024°46'0 0.0
2018-Jun-21 07:58N 59°27' E 024°46'0 0.0
2018-Jun-21 07:30N 59°27' E 024°46'0 0.0
2018-Jun-21 06:58N 59°27' E 024°46'0 0.0
2018-Jun-21 06:28N 59°27' E 024°46'0 0.0
2018-Jun-21 05:59N 59°27' E 024°46'0 0.0
2018-Jun-21 05:30N 59°27' E 024°46'3 5.5
2018-Jun-21 05:01N 59°30' E 024°45'714.7
2018-Jun-21 04:30N 59°37' E 024°40'510.3
2018-Jun-21 04:00N 59°41' E 024°46'714.1
2018-Jun-21 03:30N 59°45' E 024°56'713.8
2018-Jun-21 03:00N 59°51' E 025°04'714.9
2018-Jun-21 02:30N 59°52' E 025°18'714.9
2018-Jun-21 02:00N 59°54' E 025°33'815.0
2018-Jun-21 01:30N 59°55' E 025°48'914.9
2018-Jun-21 00:55N 59°58' E 026°04'614.9
2018-Jun-21 00:30N 59°59' E 026°16'815.4
2018-Jun-21 00:00N 60°01' E 026°31'815.1
2018-Jun-20 23:30N 60°01' E 026°46'816.5
2018-Jun-20 23:00N 59°59' E 027°03'816.3
2018-Jun-20 22:30N 60°04' E 027°17'817.2
2018-Jun-20 22:00N 60°08' E 027°31'816.8
2018-Jun-20 21:30N 60°12' E 027°46'816.6
2018-Jun-20 21:00N 60°10' E 028°02'816.6
2018-Jun-20 20:30N 60°07' E 028°18'816.7
2018-Jun-20 20:00N 60°03' E 028°33'816.7
2018-Jun-20 19:30N 60°03' E 028°50'916.3
2018-Jun-20 18:58N 60°02' E 029°07'714.3
2018-Jun-20 18:28N 60°02' E 029°21'5 8.9
2018-Jun-20 17:55N 60°01' E 029°31'511.9
2018-Jun-20 17:29N 59°60' E 029°41'4 8.2
2018-Jun-20 17:00N 59°58' E 029°48'611.6
2018-Jun-20 16:30N 59°56' E 029°59'510.2
2018-Jun-20 16:00N 59°57' E 030°09'1 2.5
2018-Jun-20 15:29N 59°57' E 030°11'0 0.0
2018-Jun-20 14:59N 59°57' E 030°11'0 0.0
2018-Jun-20 14:29N 59°57' E 030°11'0 0.0
2018-Jun-20 13:59N 59°57' E 030°11'0 0.0
2018-Jun-20 13:29N 59°57' E 030°11'0 0.0
2018-Jun-20 12:59N 59°57' E 030°11'0 0.0
2018-Jun-20 12:29N 59°57' E 030°11'0 0.0
2018-Jun-20 11:59N 59°57' E 030°11'0 0.0
2018-Jun-20 11:29N 59°57' E 030°11'0 0.0
2018-Jun-20 10:59N 59°57' E 030°11'0 0.0
2018-Jun-20 10:26N 59°57' E 030°11'0 0.0
2018-Jun-20 09:59N 59°57' E 030°11'0 0.0
2018-Jun-20 09:29N 59°57' E 030°11'0 0.0
2018-Jun-20 08:59N 59°57' E 030°11'0 0.0
2018-Jun-20 08:29N 59°57' E 030°11'0 0.0
2018-Jun-20 07:59N 59°57' E 030°11'0 0.0
2018-Jun-20 07:29N 59°57' E 030°11'0 0.0
2018-Jun-20 06:59N 59°57' E 030°11'0 0.0
2018-Jun-20 06:26N 59°57' E 030°11'0 0.0
2018-Jun-20 05:59N 59°57' E 030°11'0 0.0
2018-Jun-20 05:29N 59°57' E 030°11'0 0.0
2018-Jun-20 04:59N 59°57' E 030°11'0 0.0
2018-Jun-20 04:29N 59°57' E 030°11'0 0.0
2018-Jun-20 03:59N 59°57' E 030°11'0 0.0
2018-Jun-20 03:29N 59°57' E 030°11'0 0.0
2018-Jun-20 02:59N 59°57' E 030°11'0 0.0
2018-Jun-20 02:29N 59°57' E 030°11'0 0.0
2018-Jun-20 01:59N 59°57' E 030°11'0 0.0
2018-Jun-20 01:29N 59°57' E 030°11'0 0.0
2018-Jun-20 00:59N 59°57' E 030°11'0 0.0
2018-Jun-20 00:29N 59°57' E 030°11'0 0.0
2018-Jun-19 23:59N 59°57' E 030°11'0 0.0
2018-Jun-19 23:29N 59°57' E 030°11'0 0.0
2018-Jun-19 22:59N 59°57' E 030°11'0 0.0
2018-Jun-19 22:29N 59°57' E 030°11'0 0.0
2018-Jun-19 21:59N 59°57' E 030°11'0 0.0
2018-Jun-19 21:29N 59°57' E 030°11'0 0.0
2018-Jun-19 20:59N 59°57' E 030°11'0 0.0
2018-Jun-19 20:29N 59°57' E 030°11'0 0.0
2018-Jun-19 19:59N 59°57' E 030°11'0 0.0
2018-Jun-19 19:29N 59°57' E 030°11'0 0.0
2018-Jun-19 18:59N 59°57' E 030°11'0 0.0
2018-Jun-19 18:29N 59°57' E 030°11'0 0.0
2018-Jun-19 17:59N 59°57' E 030°11'0 0.0
2018-Jun-19 17:29N 59°57' E 030°11'0 0.0
2018-Jun-19 16:59N 59°57' E 030°11'0 0.0
2018-Jun-19 16:29N 59°57' E 030°11'0 0.0
2018-Jun-19 15:59N 59°57' E 030°11'0 0.0
2018-Jun-19 15:29N 59°57' E 030°11'0 0.0
2018-Jun-19 14:59N 59°57' E 030°11'0 0.0
2018-Jun-19 14:29N 59°57' E 030°11'0 0.0
2018-Jun-19 13:59N 59°57' E 030°11'0 0.0
2018-Jun-19 13:29N 59°57' E 030°11'0 0.0
2018-Jun-19 12:59N 59°57' E 030°11'0 0.0
2018-Jun-19 12:26N 59°57' E 030°11'0 0.0
2018-Jun-19 11:59N 59°57' E 030°11'0 0.0
2018-Jun-19 11:29N 59°57' E 030°11'0 0.0
2018-Jun-19 10:59N 59°57' E 030°11'0 0.0
2018-Jun-19 10:29N 59°57' E 030°11'0 0.0
2018-Jun-19 09:59N 59°57' E 030°11'0 0.0
2018-Jun-19 09:29N 59°57' E 030°11'0 0.0
2018-Jun-19 08:59N 59°57' E 030°11'0 0.0
2018-Jun-19 08:29N 59°57' E 030°11'0 0.0
2018-Jun-19 07:59N 59°57' E 030°11'0 0.0
2018-Jun-19 07:29N 59°57' E 030°11'0 0.0
2018-Jun-19 06:59N 59°57' E 030°11'0 0.0
2018-Jun-19 06:29N 59°57' E 030°11'0 0.0
2018-Jun-19 05:59N 59°57' E 030°11'0 0.0
2018-Jun-19 05:26N 59°57' E 030°11'0 0.0
2018-Jun-19 04:59N 59°57' E 030°11'0 0.0
2018-Jun-19 04:29N 59°57' E 030°11'0 0.0
2018-Jun-19 03:56N 59°57' E 030°11'0 0.0
2018-Jun-19 03:30N 59°57' E 030°11'2 3.1
2018-Jun-19 03:01N 59°57' E 030°08'5 9.6
2018-Jun-19 02:30N 59°56' E 029°59'510.6
2018-Jun-19 02:00N 59°58' E 029°49'4 8.2
2018-Jun-19 01:28N 59°60' E 029°41'911.1
2018-Jun-19 00:39N 60°02' E 029°23'214.4
2018-Jun-19 00:31N 60°02' E 029°19'816.1
2018-Jun-19 00:00N 60°02' E 029°03'816.2
2018-Jun-18 23:31N 60°02' E 028°47'816.4
2018-Jun-18 23:01N 60°03' E 028°31'816.2
2018-Jun-18 22:31N 60°07' E 028°17'816.5
2018-Jun-18 22:01N 60°09' E 028°01'816.2
2018-Jun-18 21:30N 60°11' E 027°45'816.3
2018-Jun-18 21:01N 60°06' E 027°31'816.4
2018-Jun-18 20:31N 60°02' E 027°17'816.3
2018-Jun-18 20:00N 59°58' E 027°03'816.6
2018-Jun-18 19:31N 59°59' E 026°47'816.4
2018-Jun-18 19:00N 59°58' E 026°30'1016.4
2018-Jun-18 18:26N 59°56' E 026°12'716.4
2018-Jun-18 17:59N 59°54' E 025°58'816.6
2018-Jun-18 17:31N 59°52' E 025°42'816.8
2018-Jun-18 17:01N 59°53' E 025°26'816.9
2018-Jun-18 16:31N 59°54' E 025°09'714.6
2018-Jun-18 16:00N 59°57' E 024°56'611.8
2018-Jun-18 15:31N 60°03' E 024°54'611.6
2018-Jun-18 14:59N 60°09' E 024°55'0 0.0
2018-Jun-18 14:29N 60°09' E 024°55'0 0.0
2018-Jun-18 13:59N 60°09' E 024°55'0 0.0
2018-Jun-18 13:29N 60°09' E 024°55'0 0.0
2018-Jun-18 12:59N 60°09' E 024°55'0 0.0
2018-Jun-18 12:26N 60°09' E 024°55'0 0.0
2018-Jun-18 11:59N 60°09' E 024°55'0 0.0
2018-Jun-18 11:23N 60°09' E 024°55'0 0.0
2018-Jun-18 10:59N 60°09' E 024°55'0 0.0
2018-Jun-18 10:29N 60°09' E 024°55'0 0.0
2018-Jun-18 09:59N 60°09' E 024°55'0 0.0
2018-Jun-18 09:29N 60°09' E 024°55'0 0.0
2018-Jun-18 08:59N 60°09' E 024°55'0 0.0
2018-Jun-18 08:29N 60°09' E 024°55'0 0.0
2018-Jun-18 07:59N 60°09' E 024°55'0 0.0
2018-Jun-18 07:29N 60°09' E 024°55'0 0.0
2018-Jun-18 06:59N 60°09' E 024°55'0 0.0
2018-Jun-18 06:20N 60°09' E 024°55'0 0.0
2018-Jun-18 05:59N 60°09' E 024°55'0 0.0
2018-Jun-18 05:29N 60°09' E 024°55'0 0.0
2018-Jun-18 04:59N 60°09' E 024°55'0 0.0
2018-Jun-18 04:29N 60°09' E 024°55'1 1.9
2018-Jun-18 04:01N 60°08' E 024°54'612.6
2018-Jun-18 03:30N 60°02' E 024°55'611.1
2018-Jun-18 03:00N 59°56' E 024°56'3 6.7
2018-Jun-18 02:30N 59°53' E 024°56'510.5
2018-Jun-18 02:00N 59°48' E 024°57'611.8
2018-Jun-18 01:30N 59°46' E 024°46'612.6
2018-Jun-18 01:00N 59°45' E 024°34'612.7
2018-Jun-18 00:30N 59°43' E 024°22'612.7
2018-Jun-18 00:00N 59°41' E 024°10'612.7
2018-Jun-17 23:30N 59°39' E 023°58'612.5
2018-Jun-17 23:00N 59°37' E 023°46'612.5
2018-Jun-17 22:30N 59°35' E 023°34'612.6
2018-Jun-17 22:00N 59°33' E 023°23'612.1
2018-Jun-17 21:30N 59°31' E 023°11'612.3
2018-Jun-17 21:00N 59°29' E 022°60'612.3
2018-Jun-17 20:30N 59°28' E 022°48'612.1
2018-Jun-17 20:00N 59°26' E 022°37'612.3
2018-Jun-17 19:30N 59°22' E 022°27'612.1
2018-Jun-17 19:00N 59°22' E 022°15'612.0
2018-Jun-17 18:30N 59°23' E 022°03'612.0
2018-Jun-17 18:00N 59°23' E 021°52'612.2
2018-Jun-17 17:30N 59°24' E 021°39'612.3
2018-Jun-17 17:00N 59°24' E 021°28'612.3
2018-Jun-17 16:30N 59°25' E 021°15'612.1
2018-Jun-17 16:00N 59°25' E 021°04'612.0
2018-Jun-17 15:30N 59°25' E 020°52'612.2
2018-Jun-17 15:00N 59°22' E 020°42'612.3
2018-Jun-17 14:30N 59°19' E 020°32'612.4
2018-Jun-17 14:00N 59°16' E 020°20'612.3
2018-Jun-17 13:30N 59°16' E 020°08'610.5
2018-Jun-17 12:59N 59°21' E 020°03'612.5
2018-Jun-17 12:30N 59°27' E 020°03'612.5
2018-Jun-17 12:00N 59°33' E 020°03'612.1
2018-Jun-17 11:29N 59°38' E 019°55'612.1
2018-Jun-17 11:00N 59°43' E 019°48'612.1
2018-Jun-17 10:30N 59°47' E 019°39'612.5
2018-Jun-17 10:00N 59°47' E 019°26'612.7
2018-Jun-17 09:31N 59°44' E 019°15'814.7
2018-Jun-17 09:00N 59°41' E 019°01'510.7
2018-Jun-17 08:30N 59°38' E 018°52'611.7
2018-Jun-17 08:00N 59°35' E 018°43'510.4
2018-Jun-17 07:30N 59°32' E 018°34'5 9.8
2018-Jun-17 07:00N 59°29' E 018°27'5 9.2
2018-Jun-17 06:30N 59°25' E 018°25'3 5.4
2018-Jun-17 06:00N 59°22' E 018°24'5 9.5
2018-Jun-17 05:30N 59°21' E 018°15'3 6.9
2018-Jun-17 05:00N 59°21' E 018°08'0 0.3
2018-Jun-17 04:30N 59°21' E 018°08'0 0.0
2018-Jun-17 04:00N 59°21' E 018°08'0 0.0
2018-Jun-17 03:30N 59°21' E 018°08'0 0.0
2018-Jun-17 03:00N 59°21' E 018°08'0 0.0
2018-Jun-17 02:30N 59°21' E 018°08'0 0.0
2018-Jun-17 02:00N 59°21' E 018°08'0 0.0
2018-Jun-17 01:30N 59°21' E 018°08'0 0.0
2018-Jun-17 01:00N 59°21' E 018°08'0 0.0
2018-Jun-17 00:30N 59°21' E 018°08'0 0.0
2018-Jun-17 00:00N 59°21' E 018°08'0 0.0
2018-Jun-16 23:30N 59°21' E 018°08'0 0.0
2018-Jun-16 23:00N 59°21' E 018°08'0 0.0
2018-Jun-16 22:30N 59°21' E 018°08'0 0.0
2018-Jun-16 22:00N 59°21' E 018°08'0 0.0
2018-Jun-16 21:30N 59°21' E 018°08'0 0.0
2018-Jun-16 21:00N 59°21' E 018°08'0 0.0
2018-Jun-16 20:30N 59°21' E 018°08'0 0.0
2018-Jun-16 20:00N 59°21' E 018°08'0 0.0
2018-Jun-16 19:30N 59°21' E 018°08'0 0.0
2018-Jun-16 19:00N 59°21' E 018°08'0 0.0
2018-Jun-16 18:30N 59°21' E 018°08'0 0.0
2018-Jun-16 18:00N 59°21' E 018°08'0 0.0
2018-Jun-16 17:27N 59°21' E 018°08'0 0.0
2018-Jun-16 17:00N 59°21' E 018°08'0 0.0
2018-Jun-16 16:31N 59°21' E 018°08'0 0.0
2018-Jun-16 16:00N 59°21' E 018°08'0 0.0
2018-Jun-16 15:30N 59°21' E 018°08'0 0.0
2018-Jun-16 15:00N 59°21' E 018°08'0 0.0
2018-Jun-16 14:30N 59°21' E 018°08'0 0.0
2018-Jun-16 14:00N 59°21' E 018°08'0 0.0
2018-Jun-16 13:30N 59°21' E 018°08'0 0.0
2018-Jun-16 13:00N 59°21' E 018°08'0 0.0
2018-Jun-16 12:30N 59°21' E 018°08'0 0.0
2018-Jun-16 12:00N 59°21' E 018°08'0 0.0
2018-Jun-16 11:30N 59°21' E 018°08'0 0.0
2018-Jun-16 11:00N 59°21' E 018°08'0 0.0
2018-Jun-16 10:31N 59°21' E 018°08'0 0.0
2018-Jun-16 10:00N 59°21' E 018°08'0 0.0
2018-Jun-16 09:30N 59°21' E 018°08'0 0.0
2018-Jun-16 09:01N 59°21' E 018°08'0 0.0
2018-Jun-16 08:30N 59°21' E 018°08'0 0.0
2018-Jun-16 08:00N 59°21' E 018°08'0 0.0
2018-Jun-16 07:30N 59°21' E 018°08'0 0.0
2018-Jun-16 07:00N 59°21' E 018°08'0 0.0
2018-Jun-16 06:31N 59°21' E 018°08'0 0.0
2018-Jun-16 06:01N 59°21' E 018°08'0 0.0
2018-Jun-16 05:30N 59°21' E 018°08'0 0.0
2018-Jun-16 05:00N 59°21' E 018°08'0 0.0
2018-Jun-16 04:30N 59°21' E 018°08'0 0.0
2018-Jun-16 04:00N 59°21' E 018°08'0 0.0
2018-Jun-16 03:30N 59°21' E 018°08'0 0.0
2018-Jun-16 03:01N 59°21' E 018°08'0 0.0
2018-Jun-16 02:30N 59°21' E 018°08'0 0.0
2018-Jun-16 02:01N 59°21' E 018°08'0 0.0
2018-Jun-16 01:30N 59°21' E 018°08'0 0.0
2018-Jun-16 01:00N 59°21' E 018°08'0 0.0
2018-Jun-16 00:30N 59°21' E 018°08'0 0.0
2018-Jun-16 00:00N 59°21' E 018°08'0 0.0
2018-Jun-15 23:31N 59°21' E 018°08'0 0.0
2018-Jun-15 23:01N 59°21' E 018°08'0 0.0
2018-Jun-15 22:30N 59°21' E 018°08'0 0.0
2018-Jun-15 22:00N 59°21' E 018°08'0 0.0
2018-Jun-15 21:31N 59°21' E 018°08'0 0.0
2018-Jun-15 21:00N 59°21' E 018°08'0 0.0
2018-Jun-15 20:30N 59°21' E 018°08'0 0.0
2018-Jun-15 20:00N 59°21' E 018°08'0 0.0
2018-Jun-15 19:30N 59°21' E 018°08'0 0.0
2018-Jun-15 19:01N 59°21' E 018°08'0 0.0
2018-Jun-15 18:30N 59°21' E 018°08'0 0.0
2018-Jun-15 18:00N 59°21' E 018°08'0 0.0
2018-Jun-15 17:31N 59°21' E 018°08'0 0.0
2018-Jun-15 17:01N 59°21' E 018°08'0 0.0
2018-Jun-15 16:30N 59°21' E 018°08'0 0.0
2018-Jun-15 16:00N 59°21' E 018°08'0 0.0
2018-Jun-15 15:30N 59°21' E 018°08'0 0.0
2018-Jun-15 15:00N 59°21' E 018°08'0 0.0
2018-Jun-15 14:30N 59°21' E 018°08'0 0.0
2018-Jun-15 14:01N 59°21' E 018°08'0 0.0
2018-Jun-15 13:31N 59°21' E 018°08'0 0.0
2018-Jun-15 13:01N 59°21' E 018°08'0 0.0
2018-Jun-15 12:30N 59°21' E 018°08'0 0.0
2018-Jun-15 12:00N 59°21' E 018°08'0 0.0
2018-Jun-15 11:30N 59°21' E 018°08'0 0.0
2018-Jun-15 11:01N 59°21' E 018°08'0 0.0
2018-Jun-15 10:30N 59°21' E 018°08'0 0.0
2018-Jun-15 10:00N 59°21' E 018°08'0 0.0
2018-Jun-15 09:30N 59°21' E 018°08'0 0.0
2018-Jun-15 09:00N 59°21' E 018°08'0 0.0
2018-Jun-15 08:30N 59°21' E 018°08'0 0.0
2018-Jun-15 08:00N 59°21' E 018°08'0 0.0
2018-Jun-15 07:30N 59°21' E 018°08'0 0.0
2018-Jun-15 07:01N 59°21' E 018°08'2 3.5
2018-Jun-15 06:30N 59°20' E 018°11'510.5
2018-Jun-15 06:00N 59°23' E 018°20'3 7.0
2018-Jun-15 05:31N 59°23' E 018°27'4 8.2
2018-Jun-15 05:00N 59°27' E 018°26'510.8
2018-Jun-15 04:31N 59°31' E 018°32'5 9.7
2018-Jun-15 04:00N 59°34' E 018°39'611.9
2018-Jun-15 03:30N 59°37' E 018°50'510.0
2018-Jun-15 03:00N 59°40' E 018°57'715.0
2018-Jun-15 02:30N 59°44' E 019°10'815.7
2018-Jun-15 02:00N 59°47' E 019°25'612.2
2018-Jun-15 01:30N 59°49' E 019°36'816.9
2018-Jun-15 01:00N 59°44' E 019°51'  

Dump ship's entire track history